Time;durP1;ratioP1;P1;durP2;ratioP2;P2;SDS_P1;SDS_P2;PMS_P1;PMS_P2;Temp;Humidity;BMP_temperature;BMP_pressure;BME280_temperature;BME280_humidity;BME280_pressure;Samples;Min_cycle;Max_cycle;Signal;HPM_P1;HPM_P2
2023/09/17 00:01:54;;;;;;;0.10;0.10;;;;;;;17.25;69.99;100992.75;7366449;19;20094;-63
2023/09/17 00:04:20;;;;;;;0.10;0.10;;;;;;;17.25;69.59;100999.81;7371287;19;20566;-63
2023/09/17 00:06:45;;;;;;;0.10;0.10;;;;;;;17.20;69.99;100978.91;7362885;19;20413;-63
2023/09/17 00:09:10;;;;;;;0.10;0.10;;;;;;;17.26;69.54;100985.69;7362331;19;20011;-63
2023/09/17 00:11:36;;;;;;;0.10;0.10;;;;;;;17.26;70.03;100983.06;7359849;19;20709;-63
2023/09/17 00:14:01;;;;;;;0.10;0.10;;;;;;;17.26;69.70;100977.78;7363638;19;20298;-63
2023/09/17 00:16:31;;;;;;;0.20;0.20;;;;;;;17.26;70.08;100972.50;7364276;19;20002;-63
2023/09/17 00:18:57;;;;;;;0.10;0.10;;;;;;;17.27;69.97;100975.06;7361899;19;20450;-63
2023/09/17 00:21:22;;;;;;;0.08;0.08;;;;;;;17.28;70.18;100973.28;7362056;19;20011;-63
2023/09/17 00:23:48;;;;;;;0.10;0.10;;;;;;;17.27;70.01;100974.22;7362314;19;20011;-63
2023/09/17 00:26:13;;;;;;;0.10;0.10;;;;;;;17.27;70.05;100976.84;7369526;19;20007;-63
2023/09/17 00:28:39;;;;;;;0.10;0.10;;;;;;;17.27;70.35;100985.63;7368564;19;20010;-63
2023/09/17 00:31:04;;;;;;;0.10;0.10;;;;;;;17.28;70.40;100975.91;7361405;19;20002;-63
2023/09/17 00:33:30;;;;;;;0.10;0.10;;;;;;;17.28;70.06;100976.75;7362254;19;20033;-63
2023/09/17 00:35:55;;;;;;;0.20;0.20;;;;;;;17.27;70.67;100969.78;7363151;19;20007;-63
2023/09/17 00:38:20;;;;;;;0.10;0.10;;;;;;;17.27;70.39;100975.06;7361656;19;20836;-63
2023/09/17 00:40:46;;;;;;;0.13;0.13;;;;;;;17.26;70.45;100962.78;7367106;19;20053;-63
2023/09/17 00:43:11;;;;;;;0.10;0.10;;;;;;;17.27;70.23;100953.94;7367217;19;20018;-63
2023/09/17 00:45:40;;;;;;;0.10;0.10;;;;;;;17.27;70.26;100956.59;7361142;19;20011;-63
2023/09/17 00:48:07;;;;;;;0.10;0.10;;;;;;;17.28;70.47;100960.94;7362149;19;20018;-63
2023/09/17 00:50:33;;;;;;;0.15;0.15;;;;;;;17.16;70.53;100942.19;7364300;19;20512;-63
2023/09/17 00:53:00;;;;;;;0.10;0.10;;;;;;;17.24;70.50;100950.63;7359965;19;20014;-63
2023/09/17 00:55:28;;;;;;;0.13;0.13;;;;;;;17.24;71.02;100947.97;7367318;19;20138;-63
2023/09/17 00:57:53;;;;;;;0.10;0.10;;;;;;;17.23;71.10;100946.25;7359821;19;20409;-63
2023/09/17 01:00:21;;;;;;;0.10;0.10;;;;;;;17.07;71.10;100925.84;7364429;19;20002;-63
2023/09/17 01:02:47;;;;;;;;;;;;;;;17.28;69.24;100945.09;7370457;19;20018;-63
2023/09/17 01:05:13;;;;;;;0.10;0.10;;;;;;;17.21;71.18;100938.41;7366134;19;19922;-63
2023/09/17 01:07:39;;;;;;;0.10;0.10;;;;;;;17.19;71.00;100940.25;7360996;19;20021;-63
2023/09/17 01:10:05;;;;;;;0.10;0.10;;;;;;;17.17;71.10;100942.09;7360992;19;20129;-63
2023/09/17 01:12:31;;;;;;;0.10;0.10;;;;;;;17.16;70.95;100935.13;7358324;19;20018;-63
2023/09/17 01:14:57;;;;;;;0.10;0.10;;;;;;;17.15;71.64;100933.41;7360638;19;21142;-63
2023/09/17 01:17:27;;;;;;;0.10;0.10;;;;;;;17.13;71.23;100940.53;7357610;19;20017;-63
2023/09/17 01:19:56;;;;;;;0.20;0.20;;;;;;;17.05;71.39;100922.41;7358674;19;20082;-63
2023/09/17 01:22:29;;;;;;;0.10;0.10;;;;;;;17.14;71.33;100921.16;7360044;19;20614;-63
2023/09/17 01:25:11;;;;;;;0.10;0.10;;;;;;;17.10;71.04;100914.31;7359841;19;20018;-63
2023/09/17 01:27:41;;;;;;;0.10;0.10;;;;;;;17.11;71.75;100927.41;7355140;19;20003;-63
2023/09/17 01:30:15;;;;;;;0.10;0.10;;;;;;;17.09;71.54;100917.88;7365277;19;20739;-63
2023/09/17 01:32:44;;;;;;;0.10;0.10;;;;;;;17.13;71.79;100916.78;7365510;19;20019;-62
2023/09/17 01:35:13;;;;;;;0.10;0.10;;;;;;;17.11;71.76;100921.28;7358086;19;20412;-63
2023/09/17 01:37:45;;;;;;;0.10;0.10;;;;;;;17.11;72.00;100922.13;7365071;19;20006;-63
2023/09/17 01:40:11;;;;;;;0.10;0.10;;;;;;;17.10;71.90;100909.03;7361356;19;20019;-63
2023/09/17 01:42:39;;;;;;;0.20;0.20;;;;;;;17.10;72.00;100909.03;7365017;19;20014;-63
2023/09/17 01:45:07;;;;;;;0.10;0.10;;;;;;;17.09;71.85;100904.69;7366988;19;20323;-63
2023/09/17 01:47:34;;;;;;;0.10;0.10;;;;;;;16.97;72.21;100881.47;7368167;19;20038;-63
2023/09/17 01:50:00;;;;;;;0.10;0.10;;;;;;;16.93;71.88;100885.19;7362222;19;20074;-63
2023/09/17 01:52:32;;;;;;;0.13;0.13;;;;;;;16.95;72.16;100883.34;7359005;19;20094;-62
2023/09/17 01:54:58;;;;;;;0.20;0.20;;;;;;;17.03;72.25;100890.00;7369476;19;20119;-63
2023/09/17 01:57:23;;;;;;;0.10;0.10;;;;;;;17.09;72.08;100902.03;7368441;19;20002;-63
2023/09/17 01:59:48;;;;;;;0.10;0.10;;;;;;;17.08;72.07;100895.91;7371539;19;20021;-62
2023/09/17 02:02:14;;;;;;;0.10;0.10;;;;;;;17.08;71.79;100884.47;7376735;19;20002;-63
2023/09/17 02:04:39;;;;;;;0.10;0.10;;;;;;;17.09;72.18;100886.22;7371071;19;20027;-63
2023/09/17 02:07:05;;;;;;;0.10;0.10;;;;;;;17.08;72.39;100879.19;7368587;19;20024;-63
2023/09/17 02:09:30;;;;;;;0.20;0.20;;;;;;;17.09;72.47;100880.94;7374670;19;20010;-63
2023/09/17 02:11:56;;;;;;;0.10;0.10;;;;;;;17.00;72.33;100866.38;7368153;19;20011;-63
2023/09/17 02:14:21;;;;;;;0.10;0.10;;;;;;;17.08;72.07;100877.44;7366875;19;20019;-62
2023/09/17 02:16:46;;;;;;;0.10;0.10;;;;;;;17.08;72.34;100872.16;7368126;19;20006;-63
2023/09/17 02:19:12;;;;;;;0.13;0.13;;;;;;;17.09;72.06;100865.09;7370555;19;20001;-62
2023/09/17 02:21:37;;;;;;;0.10;0.10;;;;;;;17.08;72.43;100860.72;7364968;19;20925;-63
2023/09/17 02:24:03;;;;;;;0.10;0.10;;;;;;;17.09;72.21;100865.09;7374200;19;20014;-62
2023/09/17 02:26:29;;;;;;;0.10;0.10;;;;;;;17.09;72.46;100870.38;7370051;19;20025;-63
2023/09/17 02:28:54;;;;;;;0.10;0.10;;;;;;;17.09;72.71;100865.09;7371106;19;20002;-62
2023/09/17 02:31:20;;;;;;;0.10;0.10;;;;;;;17.08;72.13;100863.38;7373986;19;19995;-63
2023/09/17 02:33:45;;;;;;;0.20;0.20;;;;;;;17.07;72.42;100861.66;7374120;19;20012;-63
2023/09/17 02:36:13;;;;;;;0.10;0.10;;;;;;;17.03;72.43;100860.09;7367841;19;20002;-62
2023/09/17 02:38:39;;;;;;;0.10;0.10;;;;;;;17.07;72.94;100861.66;7367073;19;20133;-63
2023/09/17 02:41:04;;;;;;;0.10;0.10;;;;;;;17.06;72.57;100850.25;7368933;19;20002;-62
2023/09/17 02:43:29;;;;;;;0.10;0.10;;;;;;;17.07;72.94;100851.09;7369309;19;20033;-62
2023/09/17 02:45:58;;;;;;;0.13;0.13;;;;;;;17.06;72.79;100854.69;7371453;19;20011;-62
2023/09/17 02:48:24;;;;;;;0.10;0.10;;;;;;;17.05;73.02;100847.69;7362394;19;20437;-63
2023/09/17 02:50:49;;;;;;;0.10;0.10;;;;;;;16.98;73.21;100836.59;7366274;19;19999;-62
2023/09/17 02:53:14;;;;;;;0.10;0.10;;;;;;;17.04;73.20;100848.63;7367489;19;20021;-62
2023/09/17 02:55:40;;;;;;;0.10;0.10;;;;;;;17.03;73.05;100846.91;7369191;19;20713;-62
2023/09/17 02:58:05;;;;;;;0.10;0.10;;;;;;;17.03;72.99;100838.97;7366558;19;19999;-63
2023/09/17 03:00:33;;;;;;;0.10;0.10;;;;;;;17.07;73.06;100840.53;7368372;19;20410;-63
2023/09/17 03:02:59;;;;;;;0.10;0.10;;;;;;;17.03;73.11;100831.06;7364826;19;21197;-62
2023/09/17 03:05:25;;;;;;;0.10;0.10;;;;;;;17.05;73.40;100830.06;7364940;19;20006;-63
2023/09/17 03:07:50;;;;;;;0.10;0.10;;;;;;;17.06;72.95;100828.28;7363879;19;20007;-63
2023/09/17 03:10:18;;;;;;;0.10;0.10;;;;;;;17.07;72.99;100824.72;7369023;19;20014;-63
2023/09/17 03:12:46;;;;;;;0.10;0.10;;;;;;;17.07;72.94;100820.28;7343838;19;20015;-63
2023/09/17 03:15:11;;;;;;;;;;;;;;;17.15;71.34;100816.44;7369730;19;20010;-63
2023/09/17 03:17:37;;;;;;;0.10;0.10;;;;;;;17.11;72.81;100821.88;7367130;19;20006;-62
2023/09/17 03:20:13;;;;;;;0.10;0.10;;;;;;;17.11;72.97;100805.19;7343739;19;20491;-62
2023/09/17 03:22:39;;;;;;;0.10;0.10;;;;;;;16.96;72.95;100782.16;7364315;19;20375;-63
2023/09/17 03:25:05;;;;;;;0.10;0.10;;;;;;;17.11;73.03;100805.19;7363528;19;20531;-62
2023/09/17 03:27:33;;;;;;;0.10;0.10;;;;;;;17.05;72.79;100789.66;7363754;19;20455;-63
2023/09/17 03:29:59;;;;;;;0.10;0.10;;;;;;;17.02;73.20;100785.34;7363104;19;20031;-63
2023/09/17 03:32:25;;;;;;;0.17;0.17;;;;;;;17.14;73.01;100804.19;7370237;19;20010;-63
2023/09/17 03:34:50;;;;;;;0.15;0.15;;;;;;;17.15;72.79;100806.75;7369037;19;20006;-63
2023/09/17 03:37:15;;;;;;;0.20;0.20;;;;;;;17.14;72.95;100810.31;7366280;19;20010;-63
2023/09/17 03:39:43;;;;;;;0.10;0.10;;;;;;;17.14;73.37;100797.13;7363242;19;21577;-63
2023/09/17 03:42:08;;;;;;;;;;;;;;;17.23;71.45;100799.28;7366335;19;20033;-62
2023/09/17 03:44:34;;;;;;;0.10;0.10;;;;;;;17.13;72.87;100787.47;7363682;19;19923;-62
2023/09/17 03:46:59;;;;;;;0.10;0.10;;;;;;;17.17;72.87;100796.97;7363701;19;20535;-62
2023/09/17 03:49:26;;;;;;;0.10;0.10;;;;;;;17.15;72.83;100796.19;7361482;19;20037;-63
2023/09/17 03:51:52;;;;;;;0.10;0.10;;;;;;;17.17;72.92;100802.25;7364472;19;20081;-63
2023/09/17 03:54:17;;;;;;;0.15;0.15;;;;;;;17.14;73.37;100796.28;7362459;19;20007;-62
2023/09/17 03:56:43;;;;;;;0.10;0.10;;;;;;;17.16;73.04;100791.75;7364443;19;20002;-63
2023/09/17 03:59:09;;;;;;;0.10;0.10;;;;;;;17.15;73.12;100785.63;7363510;19;20003;-63
2023/09/17 04:01:34;;;;;;;0.20;0.20;;;;;;;17.16;73.53;100787.34;7364848;19;20018;-63
2023/09/17 04:04:00;;;;;;;0.10;0.10;;;;;;;17.17;73.09;100777.63;7361565;19;20901;-63
2023/09/17 04:06:26;;;;;;;0.10;0.10;;;;;;;17.15;73.50;100777.72;7362292;19;20089;-62
2023/09/17 04:08:51;;;;;;;0.10;0.10;;;;;;;17.18;73.57;100779.34;7361790;19;20670;-63
2023/09/17 04:11:17;;;;;;;0.10;0.10;;;;;;;17.19;73.34;100776.66;7358983;19;20010;-62
2023/09/17 04:13:43;;;;;;;0.10;0.10;;;;;;;17.18;73.50;100776.69;7362582;19;20113;-62
2023/09/17 04:16:09;;;;;;;0.10;0.10;;;;;;;17.19;73.26;100781.94;7364430;19;20006;-62
2023/09/17 04:18:35;;;;;;;0.10;0.10;;;;;;;17.09;73.44;100754.28;7363269;19;20033;-62
2023/09/17 04:21:00;;;;;;;0.10;0.10;;;;;;;17.20;73.62;100767.78;7361143;19;20023;-62
2023/09/17 04:23:26;;;;;;;0.10;0.10;;;;;;;17.19;73.50;100767.88;7362936;19;20011;-62
2023/09/17 04:25:51;;;;;;;0.10;0.10;;;;;;;17.19;73.57;100765.25;7363234;19;20417;-62
2023/09/17 04:28:19;;;;;;;0.10;0.10;;;;;;;17.18;73.94;100764.34;7358588;19;20006;-62
2023/09/17 04:30:44;;;;;;;0.17;0.17;;;;;;;17.18;73.83;100760.88;7363710;19;20717;-62
2023/09/17 04:33:10;;;;;;;0.10;0.10;;;;;;;17.17;73.98;100760.00;7361773;19;20027;-62
2023/09/17 04:35:35;;;;;;;0.10;0.10;;;;;;;17.13;74.08;100750.53;7368508;19;20007;-63
2023/09/17 04:38:01;;;;;;;0.10;0.10;;;;;;;17.16;74.04;100753.03;7361955;19;20022;-62
2023/09/17 04:40:28;;;;;;;0.20;0.20;;;;;;;17.17;73.89;100756.53;7362261;19;20173;-62
2023/09/17 04:42:53;;;;;;;0.10;0.10;;;;;;;17.11;74.04;100744.50;7361235;19;20725;-62
2023/09/17 04:45:34;;;;;;;0.10;0.10;;;;;;;17.19;73.10;100749.41;7362187;19;20519;-63
2023/09/17 04:48:00;;;;;;;0.10;0.10;;;;;;;17.15;74.21;100746.06;7362582;19;20007;-62
2023/09/17 04:50:25;;;;;;;0.10;0.10;;;;;;;17.15;74.45;100743.41;7362013;19;20021;-62
2023/09/17 04:52:50;;;;;;;0.10;0.10;;;;;;;17.12;74.53;100736.50;7360688;19;20019;-62
2023/09/17 04:55:16;;;;;;;0.10;0.10;;;;;;;17.14;74.19;100739.06;7361656;19;20010;-62
2023/09/17 04:57:42;;;;;;;0.10;0.10;;;;;;;17.13;74.09;100734.69;7361541;19;20018;-63
2023/09/17 05:00:11;;;;;;;0.10;0.10;;;;;;;17.10;74.05;100745.44;7358210;19;20356;-62
2023/09/17 05:02:40;;;;;;;0.10;0.10;;;;;;;17.06;74.07;100720.13;7364340;19;20019;-62
2023/09/17 05:05:06;;;;;;;0.10;0.10;;;;;;;17.15;74.46;100739.94;7360280;19;20018;-62
2023/09/17 05:07:32;;;;;;;0.10;0.10;;;;;;;17.14;74.82;100736.44;7361730;19;20772;-62
2023/09/17 05:09:57;;;;;;;0.10;0.10;;;;;;;17.14;74.31;100735.59;7360891;19;20041;-62
2023/09/17 05:12:23;;;;;;;0.10;0.10;;;;;;;17.15;74.49;100735.50;7357827;19;20799;-62
2023/09/17 05:14:48;;;;;;;0.13;0.13;;;;;;;17.15;74.35;100724.94;7362699;19;20018;-62
2023/09/17 05:17:14;;;;;;;0.15;0.15;;;;;;;17.16;74.38;100729.28;7358477;19;20416;-62
2023/09/17 05:19:39;;;;;;;0.10;0.10;;;;;;;17.16;74.31;100733.72;7359526;19;20125;-62
2023/09/17 05:22:04;;;;;;;0.20;0.20;;;;;;;17.16;74.72;100728.44;7358851;19;20014;-62
2023/09/17 05:24:30;;;;;;;0.10;0.10;;;;;;;17.15;74.90;100727.59;7363096;19;20051;-62
2023/09/17 05:26:55;;;;;;;0.10;0.10;;;;;;;17.14;74.75;100728.53;7362797;19;20013;-62
2023/09/17 05:29:20;;;;;;;0.10;0.10;;;;;;;17.12;74.82;100722.44;7363106;19;20021;-62
2023/09/17 05:31:46;;;;;;;0.10;0.10;;;;;;;17.14;74.89;100723.25;7368949;19;20007;-62
2023/09/17 05:34:13;;;;;;;0.10;0.10;;;;;;;17.09;75.03;100722.63;7367442;19;20006;-62
2023/09/17 05:36:38;;;;;;;0.10;0.10;;;;;;;17.15;74.82;100730.22;7370052;19;20010;-62
2023/09/17 05:39:04;;;;;;;0.10;0.10;;;;;;;17.15;74.97;100721.47;7369620;19;20024;-62
2023/09/17 05:41:29;;;;;;;0.10;0.10;;;;;;;17.14;74.66;100725.88;7369461;19;20022;-62
2023/09/17 05:43:55;;;;;;;0.03;0.03;;;;;;;17.11;75.05;100713.69;7367301;19;20490;-62
2023/09/17 05:46:20;;;;;;;0.10;0.10;;;;;;;17.11;74.77;100728.66;7367316;19;20717;-62
2023/09/17 05:48:45;;;;;;;0.10;0.10;;;;;;;17.08;75.20;100726.16;7363258;19;20010;-61
2023/09/17 05:51:11;;;;;;;0.10;0.10;;;;;;;17.08;75.07;100720.88;7367994;19;20346;-62
2023/09/17 05:53:36;;;;;;;0.10;0.10;;;;;;;17.08;75.18;100720.88;7367320;19;20058;-62
2023/09/17 05:56:04;;;;;;;0.10;0.10;;;;;;;17.07;75.37;100727.09;7368376;19;20106;-62
2023/09/17 05:58:30;;;;;;;0.10;0.10;;;;;;;16.96;75.00;100703.88;7371570;19;20023;-62
2023/09/17 06:00:55;;;;;;;0.10;0.10;;;;;;;17.06;75.32;100714.84;7369709;19;19998;-62
2023/09/17 06:03:21;;;;;;;0.17;0.17;;;;;;;17.04;75.52;100719.34;7369032;19;20002;-61
2023/09/17 06:05:46;;;;;;;0.10;0.10;;;;;;;17.03;75.55;100712.34;7373122;19;20018;-61
2023/09/17 06:08:12;;;;;;;0.10;0.10;;;;;;;17.03;75.93;100709.69;7373967;19;20006;-61
2023/09/17 06:10:37;;;;;;;0.13;0.13;;;;;;;17.03;75.43;100712.34;7368424;19;20023;-61
2023/09/17 06:13:03;;;;;;;0.10;0.10;;;;;;;17.03;75.05;100712.34;7375214;19;20736;-61
2023/09/17 06:15:28;;;;;;;0.10;0.10;;;;;;;17.02;75.19;100708.00;7373530;19;20002;-60
2023/09/17 06:17:54;;;;;;;0.20;0.20;;;;;;;17.01;75.49;100704.50;7368834;19;20007;-61
2023/09/17 06:20:19;;;;;;;0.10;0.10;;;;;;;17.01;75.46;100714.22;7367972;19;20109;-61
2023/09/17 06:22:47;;;;;;;0.10;0.10;;;;;;;16.97;75.17;100702.09;7372580;19;20086;-61
2023/09/17 06:25:12;;;;;;;0.10;0.10;;;;;;;16.85;75.39;100696.50;7370699;19;20078;-61
2023/09/17 06:27:37;;;;;;;0.13;0.13;;;;;;;16.96;75.58;100703.03;7366283;19;20427;-61
2023/09/17 06:30:03;;;;;;;0.10;0.10;;;;;;;16.95;75.97;100707.47;7368306;19;20009;-61
2023/09/17 06:32:29;;;;;;;0.10;0.10;;;;;;;16.91;75.25;100703.25;7369125;19;20003;-61
2023/09/17 06:34:55;;;;;;;0.20;0.20;;;;;;;16.94;76.01;100715.44;7372242;19;20941;-61
2023/09/17 06:37:20;;;;;;;0.10;0.10;;;;;;;16.92;75.56;100712.03;7369447;19;20023;-61
2023/09/17 06:39:46;;;;;;;0.10;0.10;;;;;;;16.88;75.50;100702.53;7374809;19;20010;-60
2023/09/17 06:42:12;;;;;;;0.17;0.17;;;;;;;16.91;75.38;100710.31;7367914;19;20006;-60
2023/09/17 06:44:37;;;;;;;0.10;0.10;;;;;;;16.89;75.48;100705.13;7369770;19;20032;-60
2023/09/17 06:47:04;;;;;;;0.10;0.10;;;;;;;16.88;75.40;100716.59;7366827;19;20018;-59
2023/09/17 06:49:29;;;;;;;0.20;0.20;;;;;;;16.85;75.56;100714.09;7369858;19;20575;-60
2023/09/17 06:51:55;;;;;;;0.10;0.10;;;;;;;16.83;75.63;100710.69;7363587;19;20010;-59
2023/09/17 06:54:21;;;;;;;0.20;0.20;;;;;;;16.80;75.72;100706.41;7367853;19;20805;-60
2023/09/17 06:56:47;;;;;;;0.10;0.10;;;;;;;16.61;75.65;100681.81;7352410;19;20019;-60
2023/09/17 06:59:13;;;;;;;0.10;0.10;;;;;;;16.74;76.27;100704.09;7367871;19;20016;-61
2023/09/17 07:01:39;;;;;;;0.17;0.17;;;;;;;16.73;76.26;100705.03;7358600;19;20773;-60
2023/09/17 07:04:05;;;;;;;0.10;0.10;;;;;;;16.69;76.84;100698.13;7361203;19;20809;-60
2023/09/17 07:06:30;;;;;;;0.10;0.10;;;;;;;16.69;76.86;100708.69;7365933;19;20046;-61
2023/09/17 07:08:57;;;;;;;0.10;0.10;;;;;;;16.71;76.97;100705.97;7364907;19;20427;-60
2023/09/17 07:11:22;;;;;;;0.10;0.10;;;;;;;16.70;77.24;100705.13;7360523;19;20466;-60
2023/09/17 07:13:48;;;;;;;0.10;0.10;;;;;;;16.72;77.44;100703.28;7367666;19;20002;-61
2023/09/17 07:16:14;;;;;;;0.20;0.20;;;;;;;16.71;77.20;100698.94;7370159;19;20728;-60
2023/09/17 07:18:39;;;;;;;0.15;0.15;;;;;;;16.71;77.61;100701.59;7367024;19;20090;-60
2023/09/17 07:21:05;;;;;;;0.10;0.10;;;;;;;16.71;77.40;100693.66;7367356;19;20029;-61
2023/09/17 07:23:30;;;;;;;0.10;0.10;;;;;;;16.74;77.39;100701.44;7365073;19;20231;-60
2023/09/17 07:25:55;;;;;;;0.10;0.10;;;;;;;16.73;77.43;100697.09;7373004;19;20006;-61
2023/09/17 07:28:21;;;;;;;0.10;0.10;;;;;;;16.76;77.87;100696.94;7361357;19;20014;-60
2023/09/17 07:30:46;;;;;;;0.10;0.10;;;;;;;16.78;77.45;100688.97;7367498;19;20023;-61
2023/09/17 07:33:12;;;;;;;0.10;0.10;;;;;;;16.78;77.62;100686.34;7366162;19;20015;-60
2023/09/17 07:35:39;;;;;;;0.10;0.10;;;;;;;16.80;77.97;100687.97;7363939;19;20021;-61
2023/09/17 07:38:05;;;;;;;0.10;0.10;;;;;;;16.82;77.74;100688.72;7367593;19;20045;-60
2023/09/17 07:40:30;;;;;;;0.10;0.10;;;;;;;16.83;78.02;100682.53;7363749;19;20877;-61
2023/09/17 07:42:56;;;;;;;0.10;0.10;;;;;;;16.84;78.04;100678.97;7365072;19;20010;-61
2023/09/17 07:45:21;;;;;;;0.10;0.10;;;;;;;16.86;77.75;100685.00;7371829;19;20557;-61
2023/09/17 07:47:46;;;;;;;0.10;0.10;;;;;;;16.89;77.71;100680.53;7366079;19;20640;-61
2023/09/17 07:50:12;;;;;;;0.17;0.17;;;;;;;16.91;78.06;100687.44;7370016;19;20014;-61
2023/09/17 07:52:40;;;;;;;0.10;0.10;;;;;;;16.96;78.20;100687.19;7371277;19;20382;-61
2023/09/17 07:55:05;;;;;;;0.10;0.10;;;;;;;16.96;77.88;100689.84;7366978;19;20007;-61
2023/09/17 07:57:31;;;;;;;0.10;0.10;;;;;;;16.94;77.88;100675.88;7368159;19;20025;-61
2023/09/17 07:59:56;;;;;;;0.10;0.10;;;;;;;16.98;77.92;100682.69;7367420;19;20592;-61
2023/09/17 08:02:22;;;;;;;0.10;0.10;;;;;;;17.03;77.49;100680.69;7361436;19;20014;-61
2023/09/17 08:04:47;;;;;;;0.10;0.10;;;;;;;17.04;77.53;100685.06;7362540;19;20460;-61
2023/09/17 08:07:12;;;;;;;0.10;0.10;;;;;;;17.06;77.70;100681.38;7364090;19;20021;-61
2023/09/17 08:09:38;;;;;;;0.10;0.10;;;;;;;17.07;77.59;100676.97;7363676;19;20006;-61
2023/09/17 08:12:05;;;;;;;0.10;0.10;;;;;;;17.09;77.53;100680.41;7361157;19;20038;-61
2023/09/17 08:14:32;;;;;;;0.10;0.10;;;;;;;17.10;78.01;100682.94;7365764;19;20011;-61
2023/09/17 08:16:58;;;;;;;0.10;0.10;;;;;;;17.14;77.93;100682.81;7365586;19;20126;-61
2023/09/17 08:19:23;;;;;;;0.10;0.10;;;;;;;17.13;77.55;100676.66;7356813;19;20014;-61
2023/09/17 08:21:48;;;;;;;0.10;0.10;;;;;;;17.17;77.46;100677.34;7366649;19;20031;-62
2023/09/17 08:24:15;;;;;;;0.20;0.20;;;;;;;17.19;77.40;100671.09;7363143;19;20034;-61
2023/09/17 08:26:40;;;;;;;0.10;0.10;;;;;;;17.21;77.47;100663.94;7357723;19;20006;-62
2023/09/17 08:29:06;;;;;;;0.20;0.20;;;;;;;17.17;77.66;100657.09;7373879;19;20386;-61
2023/09/17 08:31:32;;;;;;;0.10;0.10;;;;;;;17.25;77.65;100654.94;7369998;19;20013;-61
2023/09/17 08:33:58;;;;;;;0.10;0.10;;;;;;;17.31;77.88;100656.41;7363772;19;20013;-62
2023/09/17 08:36:24;;;;;;;0.20;0.20;;;;;;;17.34;78.06;100656.25;7363569;19;20002;-62
2023/09/17 08:38:52;;;;;;;0.13;0.13;;;;;;;17.45;77.77;100660.97;7362068;19;20101;-61
2023/09/17 08:41:18;;;;;;;0.10;0.10;;;;;;;17.53;77.59;100664.06;7363965;19;20023;-62
2023/09/17 08:43:45;;;;;;;0.10;0.10;;;;;;;17.63;77.43;100654.72;7364588;19;20014;-61
2023/09/17 08:46:11;;;;;;;0.10;0.10;;;;;;;17.69;77.55;100659.69;7364398;19;20010;-62
2023/09/17 08:48:37;;;;;;;0.10;0.10;;;;;;;17.77;77.01;100652.25;7364142;19;20022;-61
2023/09/17 08:51:04;;;;;;;0.10;0.10;;;;;;;17.84;76.91;100648.34;7364555;19;20500;-61
2023/09/17 08:53:37;;;;;;;0.10;0.10;;;;;;;17.93;76.80;100657.56;7361723;19;20010;-61
2023/09/17 08:56:06;;;;;;;0.10;0.10;;;;;;;18.00;76.51;100668.66;7363143;19;20017;-62
2023/09/17 08:58:40;;;;;;;0.10;0.10;;;;;;;18.06;76.56;100670.97;7363375;19;20014;-62
2023/09/17 09:01:08;;;;;;;0.13;0.13;;;;;;;18.07;76.35;100670.03;7363171;19;20027;-61
2023/09/17 09:03:35;;;;;;;0.10;0.10;;;;;;;18.09;76.31;100665.50;7365766;19;20492;-61
2023/09/17 09:06:03;;;;;;;0.10;0.10;;;;;;;18.09;76.29;100652.28;7377515;19;20006;-61
2023/09/17 09:08:30;;;;;;;0.10;0.10;;;;;;;18.10;76.38;100659.31;7379187;19;20002;-62
2023/09/17 09:10:56;;;;;;;0.10;0.10;;;;;;;18.10;76.31;100643.44;7379217;19;20018;-61
2023/09/17 09:13:21;;;;;;;0.10;0.10;;;;;;;18.10;76.42;100644.28;7370476;19;20003;-61
2023/09/17 09:15:47;;;;;;;0.13;0.13;;;;;;;17.94;76.69;100622.25;7372290;19;20540;-62
2023/09/17 09:18:15;;;;;;;0.10;0.10;;;;;;;18.11;76.36;100642.50;7370173;19;20026;-62
2023/09/17 09:20:42;;;;;;;0.10;0.10;;;;;;;18.13;76.52;100643.25;7370607;19;20335;-62
2023/09/17 09:23:07;;;;;;;0.10;0.10;;;;;;;18.11;76.58;100632.78;7352791;19;20019;-62
2023/09/17 09:25:34;;;;;;;0.10;0.10;;;;;;;18.15;76.79;100633.47;7371283;19;20025;-62
2023/09/17 09:28:02;;;;;;;0.10;0.10;;;;;;;18.15;76.83;100629.03;7371397;19;20381;-61
2023/09/17 09:30:28;;;;;;;0.10;0.10;;;;;;;18.19;76.81;100620.91;7368421;19;20802;-62
2023/09/17 09:32:54;;;;;;;0.10;0.10;;;;;;;18.22;76.63;100624.25;7369538;19;20109;-62
2023/09/17 09:35:20;;;;;;;0.10;0.10;;;;;;;18.26;76.23;100623.16;7370794;19;20029;-62
2023/09/17 09:37:46;;;;;;;0.10;0.10;;;;;;;18.30;76.65;100631.78;7370522;19;20602;-62
2023/09/17 09:40:14;;;;;;;0.10;0.10;;;;;;;18.35;76.38;100633.22;7373315;19;20461;-62
2023/09/17 09:42:39;;;;;;;0.10;0.10;;;;;;;18.35;76.22;100627.94;7367460;19;20010;-62
2023/09/17 09:45:11;;;;;;;0.10;0.10;;;;;;;18.39;75.97;100629.44;7374911;19;20365;-62
2023/09/17 09:47:38;;;;;;;0.10;0.10;;;;;;;18.39;76.35;100624.16;7367940;19;20033;-62
2023/09/17 09:50:04;;;;;;;0.10;0.10;;;;;;;18.41;76.02;100622.28;7373780;19;20382;-62
2023/09/17 09:52:29;;;;;;;0.10;0.10;;;;;;;18.37;76.25;100609.31;7370191;19;20545;-62
2023/09/17 09:54:54;;;;;;;0.10;0.10;;;;;;;18.44;76.47;100605.38;7367237;19;20034;-62
2023/09/17 09:57:20;;;;;;;0.10;0.10;;;;;;;18.45;75.96;100606.22;7373577;19;20033;-62
2023/09/17 09:59:48;;;;;;;0.10;0.10;;;;;;;18.48;76.05;100606.06;7374616;19;20014;-62
2023/09/17 10:02:15;;;;;;;0.10;0.10;;;;;;;18.48;76.21;100606.06;7368658;19;20022;-62
2023/09/17 10:04:43;;;;;;;0.10;0.10;;;;;;;18.50;75.81;100598.88;7369252;19;20130;-62
2023/09/17 10:07:08;;;;;;;0.10;0.10;;;;;;;18.52;76.08;100591.75;7367451;19;20488;-61
2023/09/17 10:09:35;;;;;;;0.10;0.10;;;;;;;18.53;76.14;100591.63;7366505;19;20010;-62
2023/09/17 10:12:01;;;;;;;0.10;0.10;;;;;;;18.56;76.11;100593.28;7368973;19;20027;-62
2023/09/17 10:14:27;;;;;;;0.10;0.10;;;;;;;18.59;76.08;100593.06;7365934;19;20010;-62
2023/09/17 10:16:54;;;;;;;0.10;0.10;;;;;;;18.65;76.20;100588.31;7369137;19;20016;-62
2023/09/17 10:19:22;;;;;;;0.10;0.10;;;;;;;18.66;75.84;100578.56;7367809;19;20007;-62
2023/09/17 10:21:48;;;;;;;;;;;;;;;18.82;75.51;100583.84;7372748;19;20030;-62
2023/09/17 10:24:15;;;;;;;0.10;0.10;;;;;;;18.79;75.69;100569.00;7370177;19;19925;-62
2023/09/17 10:26:42;;;;;;;0.10;0.10;;;;;;;18.87;75.69;100574.69;7365166;19;20025;-62
2023/09/17 10:29:15;;;;;;;0.10;0.10;;;;;;;18.91;75.45;100568.28;7368336;19;20010;-62
2023/09/17 10:31:46;;;;;;;0.10;0.10;;;;;;;18.99;75.38;100574.91;7373935;19;20007;-62
2023/09/17 10:34:15;;;;;;;0.10;0.10;;;;;;;19.00;75.71;100571.31;7367380;19;20515;-62
2023/09/17 10:36:42;;;;;;;0.10;0.10;;;;;;;19.05;75.43;100569.25;7363504;19;20344;-62
2023/09/17 10:39:10;;;;;;;0.10;0.10;;;;;;;19.08;75.71;100561.13;7360272;19;20019;-62
2023/09/17 10:41:39;;;;;;;0.10;0.10;;;;;;;19.12;75.15;100555.56;7362885;19;20010;-62
2023/09/17 10:44:06;;;;;;;0.10;0.10;;;;;;;19.12;75.65;100549.41;7368919;19;20430;-62
2023/09/17 10:46:35;;;;;;;0.10;0.10;;;;;;;19.17;75.36;100552.63;7370685;19;20014;-62
2023/09/17 10:49:02;;;;;;;0.10;0.10;;;;;;;19.20;75.57;100549.78;7364863;19;20022;-62
2023/09/17 10:51:27;;;;;;;0.10;0.10;;;;;;;19.24;75.35;100543.34;7368318;19;20078;-62
2023/09/17 10:53:56;;;;;;;0.10;0.10;;;;;;;19.27;75.25;100548.47;7365453;19;20018;-62
2023/09/17 10:56:22;;;;;;;0.10;0.10;;;;;;;19.28;75.39;100539.59;7368723;19;20010;-62
2023/09/17 10:58:52;;;;;;;0.10;0.10;;;;;;;19.36;75.21;100547.91;7375169;19;20020;-62
2023/09/17 11:01:30;;;;;;;0.10;0.10;;;;;;;19.37;75.01;100543.47;7371553;19;20029;-62
2023/09/17 11:04:04;;;;;;;0.10;0.10;;;;;;;19.36;74.49;100536.44;7366687;19;20014;-61
2023/09/17 11:06:32;;;;;;;0.10;0.10;;;;;;;19.29;74.91;100537.78;7370434;19;20042;-62
2023/09/17 11:08:57;;;;;;;0.10;0.10;;;;;;;19.22;75.39;100534.69;7358880;19;20014;-62
2023/09/17 11:11:26;;;;;;;0.10;0.10;;;;;;;19.19;75.19;100535.69;7359878;19;20046;-63
2023/09/17 11:13:53;;;;;;;0.10;0.10;;;;;;;19.17;75.53;100536.75;7361324;19;20006;-62
2023/09/17 11:16:20;;;;;;;0.10;0.10;;;;;;;19.12;75.23;100538.81;7359513;19;20010;-61
2023/09/17 11:19:11;;;;;;;0.10;0.10;;;;;;;19.10;74.47;100546.00;7360791;19;20018;-62
2023/09/17 11:21:47;;;;;;;0.10;0.10;;;;;;;19.02;75.41;100542.97;7361599;19;20039;-62
2023/09/17 11:24:13;;;;;;;0.10;0.10;;;;;;;18.91;75.44;100544.47;7360482;19;20034;-62